ADDS METAR Data INFO
IDs: Format: Raw Decoded Include TAF

Data at: 0923 UTC 17 Oct 2017

KALS 170852Z AUTO 00000KT 10SM CLR M03/M09 A3044 RMK AO2 SLP267 T10331089 50002 $
KALS 170752Z AUTO 33003KT 10SM CLR M03/M09 A3044 RMK AO2 SLP272 T10281089 $
KALS 170652Z AUTO 05003KT 10SM CLR M03/M09 A3044 RMK AO2 SLP277 T10281089 402001094 $
KALS 170552Z AUTO 25006KT 10SM CLR M01/M09 A3043 RMK AO2 SLP277 T10061089 10189 21006 50007 $
KALS 170452Z AUTO 00000KT 10SM CLR 00/M08 A3043 RMK AO2 SLP281 T00001083 $
KALS 170352Z AUTO 27007KT 10SM CLR 05/M07 A3042 RMK AO2 SLP277 T00501072 $
KALS 170252Z AUTO 28008KT 10SM CLR 05/M06 A3040 RMK AO2 SLP284 T00501056 53011 $
KALS 170152Z AUTO 20005KT 10SM CLR 05/M08 A3038 RMK AO2 SLP299 T00501078 $
KALS 170052Z AUTO 35004KT 10SM CLR 13/M11 A3037 RMK AO2 SLP276 T01281106 $
KALS 162352Z AUTO 04004KT 10SM CLR 19/M11 A3036 RMK AO2 SLP253 T01891106 10200 20117 56014 $
KALS 162252Z AUTO VRB03KT 10SM CLR 19/M11 A3037 RMK AO2 SLP252 T01941106 $
KALS 162152Z AUTO 15007KT 10SM CLR 19/M11 A3040 RMK AO2 SLP259 T01941111 $
KALS 162052Z AUTO VRB04KT 10SM CLR 19/M16 A3041 RMK AO2 SLP259 T01891156 56033 $
KALS 161952Z AUTO VRB04KT 10SM CLR 17/M11 A3045 RMK AO2 SLP280 T01721111 $
KALS 161852Z AUTO 22003KT 10SM CLR 15/M11 A3050 RMK AO2 SLP298 T01501111 $
KALS 161752Z AUTO 28003KT 10SM CLR 12/M11 A3053 RMK AO2 SLP314 T01171106 10122 21094 58012 $
KALS 161652Z AUTO 00000KT 10SM CLR 09/M09 A3056 RMK AO2 SLP335 T00941094 $
KALS 161552Z AUTO 00000KT 10SM CLR 05/M09 A3058 RMK AO2 SLP351 T00501094 $
KALS 161452Z AUTO 00000KT 10SM CLR 01/M08 A3058 RMK AO2 SLP350 T00061078 53008 $
KALS 161352Z AUTO 00000KT 10SM CLR M07/M10 A3056 RMK AO2 SLP358 T10671100 $
KALS 161252Z AUTO 00000KT 10SM CLR M08/M11 A3055 RMK AO2 SLP349 T10831111 FZRANO $
KALS 161152Z AUTO 04003KT 10SM CLR M08/M11 A3055 RMK AO2 SLP329 T10781106 10000 21078 55000 FZRANO $
KALS 161052Z AUTO 31005KT 10SM CLR M06/M10 A3054 RMK AO2 SLP317 T10611100 FZRANO $
KALS 160952Z AUTO 23004KT 10SM CLR M06/M11 A3054 RMK AO2 SLP316 T10611106 FZRANO $
KALS 160852Z AUTO 04003KT 10SM CLR M04/M10 A3054 RMK AO2 SLP315 T10391100 57000 FZRANO $
KALS 160752Z AUTO 24003KT 10SM CLR M05/M11 A3055 RMK AO2 SLP322 T10501106 FZRANO $
KALS 160652Z AUTO 12004KT 10SM CLR M03/M10 A3054 RMK AO2 SLP324 T10331100 401781094 FZRANO $
KALS 160552Z AUTO 33004KT 10SM CLR M01/M08 A3055 RMK AO2 SLP325 T10061083 10156 21022 51010 FZRANO $
KALS 160452Z AUTO 14003KT 10SM CLR M02/M10 A3053 RMK AO2 SLP331 T10171100 FZRANO $
KALS 160352Z AUTO 00000KT 10SM CLR M01/M10 A3053 RMK AO2 SLP337 T10061100 FZRANO $
KALS 160252Z AUTO 28006KT 10SM CLR 03/M11 A3051 RMK AO2 SLP329 T00331111 53011 $
KALS 160152Z AUTO 00000KT 10SM CLR 07/M13 A3049 RMK AO2 SLP331 T00671133 $
KALS 160052Z AUTO 20004KT 10SM CLR 11/M16 A3048 RMK AO2 SLP325 T01061161 $
KALS 152352Z AUTO 18004KT 10SM CLR 16/M18 A3047 RMK AO2 SLP302 T01561183 10178 20094 56007 $
KALS 152252Z AUTO 16006KT 10SM CLR 17/M21 A3047 RMK AO2 SLP296 T01721211 $
KALS 152152Z AUTO VRB03KT 10SM CLR 17/M21 A3048 RMK AO2 SLP302 T01721206 $